createdAt,value
2019-02-25T00:01:06.988Z,62910.13
2019-02-25T00:03:33.238Z,62887.78
2019-02-25T00:05:59.473Z,62871.40
2019-02-25T00:08:25.702Z,62872.77
2019-02-25T00:10:51.946Z,62863.32
2019-02-25T00:13:18.180Z,62877.43
2019-02-25T00:15:44.423Z,62891.89
2019-02-25T00:18:10.656Z,62879.92
2019-02-25T00:20:36.895Z,62894.92
2019-02-25T00:23:03.126Z,62886.86
2019-02-25T00:25:29.360Z,62876.18
2019-02-25T00:27:55.589Z,62881.07
2019-02-25T00:31:03.143Z,62912.30
2019-02-25T00:33:29.399Z,62909.33
2019-02-25T00:35:55.686Z,62900.86
2019-02-25T00:38:21.927Z,62890.23
2019-02-25T00:40:48.173Z,62905.77
2019-02-25T00:43:14.420Z,62897.09
2019-02-25T00:45:40.663Z,62887.33
2019-02-25T00:48:06.894Z,62900.31
2019-02-25T00:50:33.139Z,62897.04
2019-02-25T00:52:59.372Z,62892.20
2019-02-25T00:55:25.605Z,62895.79
2019-02-25T00:57:51.862Z,62909.29
2019-02-25T01:03:18.815Z,62883.74
2019-02-25T01:05:45.064Z,62883.42
2019-02-25T01:08:11.301Z,62870.10
2019-02-25T01:10:37.527Z,62884.96
2019-02-25T01:13:03.771Z,62886.41
2019-02-25T01:15:29.999Z,62883.81
2019-02-25T01:17:56.245Z,62897.16
2019-02-25T01:20:22.471Z,62922.43
2019-02-25T01:22:48.712Z,62908.58
2019-02-25T01:25:56.246Z,62889.93
2019-02-25T01:28:22.492Z,62921.09
2019-02-25T01:30:48.751Z,62929.75
2019-02-25T01:33:14.996Z,62900.31
2019-02-25T01:35:41.247Z,62870.32
2019-02-25T01:38:07.499Z,62877.43
2019-02-25T01:40:33.749Z,62871.97
2019-02-25T01:42:59.986Z,62873.12
2019-02-25T01:45:26.217Z,62880.70
2019-02-25T01:47:52.475Z,62869.85
2019-02-25T01:50:18.702Z,62865.21
2019-02-25T01:52:44.941Z,62876.73
2019-02-25T01:58:24.800Z,62883.86
2019-02-25T02:00:51.033Z,62900.70
2019-02-25T02:03:17.277Z,62924.30
2019-02-25T02:05:43.505Z,62912.30
2019-02-25T02:08:09.743Z,62910.13
2019-02-25T02:10:36.001Z,62924.83
2019-02-25T02:13:02.240Z,62886.19
2019-02-25T02:15:28.474Z,62910.13
2019-02-25T02:17:54.719Z,62919.36
2019-02-25T02:20:20.946Z,62955.93
2019-02-25T02:22:47.192Z,62959.75
2019-02-25T02:25:13.459Z,62975.59
2019-02-25T02:27:39.658Z,62951.95
2019-02-25T02:30:25.656Z,62925.15
2019-02-25T02:32:51.906Z,62913.93
2019-02-25T02:35:18.152Z,62923.21
2019-02-25T02:37:44.399Z,62883.59
2019-02-25T02:43:24.624Z,62875.21
2019-02-25T02:51:52.861Z,62889.41
2019-02-25T02:54:19.111Z,62880.00
2019-02-25T02:56:45.336Z,62890.15
2019-02-25T02:59:11.580Z,62885.59
2019-02-25T03:01:37.813Z,62895.12
2019-02-25T03:04:04.056Z,62875.01
2019-02-25T03:06:30.305Z,62878.28
2019-02-25T03:08:56.513Z,62888.63
2019-02-25T03:11:22.758Z,62889.46
2019-02-25T03:13:48.983Z,62844.92
2019-02-25T03:16:15.231Z,62870.72
2019-02-25T03:18:41.468Z,62849.08
2019-02-25T03:21:07.717Z,62821.16
2019-02-25T03:23:33.952Z,62823.05
2019-02-25T03:26:00.212Z,62825.67
2019-02-25T03:28:26.447Z,62832.32
2019-02-25T03:30:52.699Z,62820.54
2019-02-25T03:33:18.952Z,62865.44
2019-02-25T03:35:45.179Z,62883.42
2019-02-25T03:38:11.412Z,62895.94
2019-02-25T03:40:37.660Z,62865.54
2019-02-25T03:43:03.890Z,62850.38
2019-02-25T03:45:30.128Z,62840.38
2019-02-25T03:47:56.356Z,62841.37
2019-02-25T03:50:22.622Z,62851.82
2019-02-25T03:52:48.845Z,62843.82
2019-02-25T03:55:34.833Z,62833.90
2019-02-25T03:58:01.089Z,62818.64
2019-02-25T04:00:27.317Z,62806.61
2019-02-25T04:02:53.547Z,62823.00
2019-02-25T04:05:19.891Z,62828.16
2019-02-25T04:07:46.171Z,62811.29
2019-02-25T04:10:53.705Z,62830.68
2019-02-25T04:13:20.038Z,62826.77
2019-02-25T04:15:46.309Z,62790.80
2019-02-25T04:18:12.552Z,62765.34
2019-02-25T04:20:38.812Z,62776.12
2019-02-25T04:23:05.056Z,62774.06
2019-02-25T04:25:31.296Z,62797.33
2019-02-25T04:27:57.537Z,62795.16
2019-02-25T04:30:23.763Z,62828.04
2019-02-25T04:32:50.012Z,62813.96
2019-02-25T04:35:16.233Z,62796.04
2019-02-25T04:37:42.482Z,62783.80
2019-02-25T04:43:22.492Z,62790.53
2019-02-25T04:45:48.721Z,62780.79
2019-02-25T04:48:14.975Z,62783.75
2019-02-25T04:50:41.206Z,62761.01
2019-02-25T04:53:07.457Z,62757.95
2019-02-25T04:55:33.691Z,62764.14
2019-02-25T04:57:59.928Z,62780.34
2019-02-25T05:00:26.155Z,62782.11
2019-02-25T05:02:52.389Z,62768.90
2019-02-25T05:05:18.628Z,62770.00
2019-02-25T05:07:44.870Z,62768.36
2019-02-25T05:10:30.858Z,62770.75
2019-02-25T05:13:16.859Z,62759.81
2019-02-25T05:15:43.093Z,62767.68
2019-02-25T05:18:09.370Z,62760.33
2019-02-25T05:20:35.592Z,62781.89
2019-02-25T05:23:01.838Z,62781.63
2019-02-25T05:25:28.103Z,62795.91
2019-02-25T05:27:54.325Z,62805.53
2019-02-25T05:30:20.559Z,62803.54
2019-02-25T05:32:46.806Z,62807.27
2019-02-25T05:35:13.033Z,62805.53
2019-02-25T05:37:39.278Z,62777.75
2019-02-25T05:40:46.808Z,62781.56
2019-02-25T05:43:13.080Z,62773.52
2019-02-25T05:45:39.312Z,62767.14
2019-02-25T05:48:05.564Z,62755.75
2019-02-25T05:50:31.801Z,62752.29
2019-02-25T05:52:58.050Z,62753.26
2019-02-25T05:55:24.286Z,62737.40
2019-02-25T05:57:50.529Z,62759.86
2019-02-25T06:03:30.916Z,62824.05
2019-02-25T06:05:57.154Z,62815.18
2019-02-25T06:08:23.391Z,62820.76
2019-02-25T06:10:49.633Z,62803.41
2019-02-25T06:13:15.879Z,62781.69
2019-02-25T06:15:42.112Z,62780.79
2019-02-25T06:18:08.371Z,62810.62
2019-02-25T06:20:34.606Z,62794.49
2019-02-25T06:23:00.853Z,62796.33
2019-02-25T06:25:27.084Z,62785.77
2019-02-25T06:27:53.316Z,62799.00
2019-02-25T06:31:00.869Z,62782.63
2019-02-25T06:33:27.107Z,62808.80
2019-02-25T06:35:53.351Z,62795.24
2019-02-25T06:38:19.615Z,62799.05
2019-02-25T06:40:45.844Z,62797.76
2019-02-25T06:43:12.087Z,62785.92
2019-02-25T06:45:38.339Z,62777.77
2019-02-25T06:48:04.569Z,62780.86
2019-02-25T06:50:30.816Z,62780.79
2019-02-25T06:52:57.039Z,62797.13
2019-02-25T06:55:23.292Z,62814.23
2019-02-25T06:57:49.523Z,62820.21
2019-02-25T07:00:57.067Z,62818.79
2019-02-25T07:03:23.307Z,62812.16
2019-02-25T07:09:05.920Z,62783.86
2019-02-25T07:11:52.717Z,62787.41
2019-02-25T07:20:04.098Z,62848.01
2019-02-25T07:22:50.093Z,62840.38
2019-02-25T07:25:36.090Z,62834.99
2019-02-25T07:28:22.078Z,62839.29
2019-02-25T07:36:15.828Z,62862.17
2019-02-25T07:39:01.837Z,62839.26
2019-02-25T07:41:47.830Z,62845.82
2019-02-25T07:44:33.836Z,62851.27
2019-02-25T07:47:19.816Z,62855.41
2019-02-25T07:50:05.814Z,62866.54
2019-02-25T07:52:51.791Z,62854.19
2019-02-25T07:55:37.794Z,62871.97
2019-02-25T08:01:11.375Z,62891.05
2019-02-25T08:03:57.355Z,62887.23
2019-02-25T08:06:43.360Z,62879.92
2019-02-25T08:09:29.381Z,62891.60
2019-02-25T08:15:02.968Z,62872.09
2019-02-25T08:17:48.970Z,62883.94
2019-02-25T08:20:34.972Z,62880.12
2019-02-25T08:26:08.567Z,62906.32
2019-02-25T08:28:54.551Z,62899.28
2019-02-25T08:31:40.571Z,62902.75
2019-02-25T08:34:26.558Z,62904.09
2019-02-25T08:43:14.220Z,62925.78
2019-02-25T08:50:52.593Z,62960.27
2019-02-25T08:53:18.822Z,62947.04
2019-02-25T08:55:45.055Z,62952.11
2019-02-25T08:58:11.295Z,62946.09
2019-02-25T09:00:37.523Z,62952.16
2019-02-25T09:03:03.760Z,62959.49
2019-02-25T09:05:29.983Z,62963.53
2019-02-25T09:07:56.221Z,62970.11
2019-02-25T09:10:22.436Z,62958.14
2019-02-25T09:12:48.967Z,62965.74
2019-02-25T09:15:16.789Z,62960.96
2019-02-25T09:20:16.333Z,62971.18
2019-02-25T09:22:42.584Z,62990.82
2019-02-25T09:25:50.098Z,62987.25
2019-02-25T09:28:16.336Z,62996.27
2019-02-25T09:30:42.563Z,62996.87
2019-02-25T09:33:08.804Z,62995.20
2019-02-25T09:35:35.028Z,62991.89
2019-02-25T09:38:01.266Z,63013.75
2019-02-25T09:40:27.503Z,62997.68
2019-02-25T09:42:53.747Z,63010.97
2019-02-25T09:45:20.088Z,63023.57
2019-02-25T09:47:46.326Z,63006.95
2019-02-25T09:50:53.881Z,62995.08
2019-02-25T09:53:20.122Z,63009.67
2019-02-25T09:55:46.345Z,63014.04
2019-02-25T09:58:12.580Z,63020.13
2019-02-25T10:00:38.808Z,63015.89
2019-02-25T10:03:05.052Z,63013.57
2019-02-25T10:05:31.294Z,63028.46
2019-02-25T10:07:57.529Z,63038.85
2019-02-25T10:10:23.805Z,63036.70
2019-02-25T10:12:50.026Z,63044.85
2019-02-25T10:15:57.582Z,63031.92
2019-02-25T10:18:23.835Z,63022.43
2019-02-25T10:20:50.085Z,63036.29
2019-02-25T10:23:16.320Z,63059.59
2019-02-25T10:25:42.571Z,63053.55
2019-02-25T10:28:08.795Z,63081.43
2019-02-25T10:30:35.046Z,63087.06
2019-02-25T10:33:01.277Z,63096.76
2019-02-25T10:36:08.843Z,63094.28
2019-02-25T10:38:35.095Z,63113.64
2019-02-25T10:41:01.337Z,63113.09
2019-02-25T10:43:29.337Z,63109.86
2019-02-25T10:45:55.717Z,63112.00
2019-02-25T10:48:23.529Z,63114.20
2019-02-25T10:50:55.901Z,63096.54
2019-02-25T10:53:19.902Z,63103.80
2019-02-25T10:56:27.686Z,63091.29
2019-02-25T10:58:53.923Z,63105.45
2019-02-25T11:01:22.338Z,63093.97
2019-02-25T11:03:49.878Z,63094.52
2019-02-25T11:06:16.479Z,63087.81
2019-02-25T11:14:05.135Z,63078.68
2019-02-25T11:16:32.385Z,63080.04
2019-02-25T11:19:00.707Z,63078.15
2019-02-25T11:24:01.680Z,63060.22
2019-02-25T11:26:28.883Z,63068.96
2019-02-25T11:28:56.094Z,63081.43
2019-02-25T11:31:24.712Z,63071.58
2019-02-25T11:33:50.473Z,63070.59
2019-02-25T11:36:17.740Z,63073.31
2019-02-25T11:41:41.570Z,63067.27
2019-02-25T11:44:07.821Z,63064.87
2019-02-25T11:46:34.047Z,63055.52
2019-02-25T11:49:00.290Z,63056.82
2019-02-25T11:51:27.315Z,63054.66
2019-02-25T11:53:54.819Z,63039.81
2019-02-25T11:56:21.041Z,63045.95
2019-02-25T11:58:47.276Z,63041.54
2019-02-25T12:01:13.508Z,63037.17
2019-02-25T12:03:39.752Z,63034.77
2019-02-25T12:06:05.980Z,63036.96
2019-02-25T12:08:32.237Z,63041.03
2019-02-25T12:10:58.443Z,63043.75
2019-02-25T12:13:24.688Z,63049.22
2019-02-25T12:15:51.019Z,63033.47
2019-02-25T12:18:17.272Z,63036.29
2019-02-25T12:20:43.500Z,63039.14
2019-02-25T12:23:09.747Z,63034.45
2019-02-25T12:25:35.992Z,63038.67
2019-02-25T12:28:02.236Z,63029.32
2019-02-25T12:33:42.511Z,63025.93
2019-02-25T12:36:08.757Z,63032.83
2019-02-25T12:38:35.012Z,63025.15
2019-02-25T12:41:01.235Z,63026.84
2019-02-25T12:43:27.479Z,63006.62
2019-02-25T12:45:53.709Z,62998.23
2019-02-25T12:48:19.953Z,62999.06
2019-02-25T12:50:46.180Z,62996.82
2019-02-25T12:53:12.416Z,62977.91
2019-02-25T12:55:38.662Z,62973.46
2019-02-25T12:58:04.884Z,62979.01
2019-02-25T13:00:31.135Z,62979.21
2019-02-25T13:02:57.364Z,62967.88
2019-02-25T13:06:04.915Z,62956.44
2019-02-25T13:08:31.148Z,62957.82
2019-02-25T13:10:57.407Z,62952.91
2019-02-25T13:13:23.636Z,62951.61
2019-02-25T13:15:49.889Z,62949.39
2019-02-25T13:18:16.134Z,62939.00
2019-02-25T13:20:42.388Z,62935.93
2019-02-25T13:23:08.612Z,62932.44
2019-02-25T13:25:34.849Z,62924.05
2019-02-25T13:28:02.126Z,62930.84
2019-02-25T13:30:29.234Z,62923.93
2019-02-25T13:32:55.470Z,62924.30
2019-02-25T13:35:21.718Z,62910.43
2019-02-25T13:37:47.954Z,62906.41
2019-02-25T13:40:55.504Z,62909.55
2019-02-25T13:43:21.746Z,62906.29
2019-02-25T13:45:47.994Z,62923.21
2019-02-25T13:48:14.247Z,62919.24
2019-02-25T13:50:40.487Z,62921.33
2019-02-25T13:53:06.719Z,62927.57
2019-02-25T13:55:33.061Z,62945.02
2019-02-25T13:58:01.194Z,62934.75
2019-02-25T14:01:08.738Z,62940.11
2019-02-25T14:03:34.990Z,62923.85
2019-02-25T14:06:01.242Z,62938.48
2019-02-25T14:08:27.675Z,62927.82
2019-02-25T14:10:53.924Z,62918.94
2019-02-25T14:13:20.148Z,62917.19
2019-02-25T14:15:46.513Z,62904.77
2019-02-25T14:18:12.755Z,62895.71
2019-02-25T14:20:39.000Z,62891.89
2019-02-25T14:23:05.223Z,62899.76
2019-02-25T14:26:12.804Z,62898.14
2019-02-25T14:28:39.054Z,62886.04
2019-02-25T14:31:48.937Z,62906.84
2019-02-25T14:34:27.870Z,62891.89
2019-02-25T14:36:54.966Z,62894.04
2019-02-25T14:39:27.861Z,62890.50
2019-02-25T14:41:54.448Z,62869.85
2019-02-25T14:44:18.644Z,62874.84
2019-02-25T14:46:44.892Z,62871.97
2019-02-25T14:49:11.128Z,62858.41
2019-02-25T14:51:37.381Z,62860.25
2019-02-25T14:54:03.613Z,62853.97
2019-02-25T14:56:31.773Z,62860.53
2019-02-25T14:58:58.012Z,62864.89
2019-02-25T15:01:25.660Z,62853.99
2019-02-25T15:03:52.404Z,62836.54
2019-02-25T15:06:18.655Z,62843.42
2019-02-25T15:08:44.894Z,62834.70
2019-02-25T15:11:12.670Z,62855.14
2019-02-25T15:13:39.281Z,62851.59
2019-02-25T15:16:05.508Z,62849.10
2019-02-25T15:18:31.808Z,62830.21
2019-02-25T15:20:58.463Z,62843.49
2019-02-25T15:23:27.994Z,62849.10
2019-02-25T15:25:54.319Z,62834.94
2019-02-25T15:28:22.246Z,62826.22
2019-02-25T15:30:48.709Z,62816.68
2019-02-25T15:33:14.945Z,62806.13
2019-02-25T15:35:41.688Z,62791.28
2019-02-25T15:38:09.331Z,62801.22
2019-02-25T15:40:35.580Z,62791.23
2019-02-25T15:43:43.108Z,62788.16
2019-02-25T15:46:10.457Z,62784.05
2019-02-25T15:48:39.381Z,62784.90
2019-02-25T15:51:05.719Z,62782.93
2019-02-25T15:53:31.971Z,62773.19
2019-02-25T15:56:01.024Z,62783.20
2019-02-25T15:58:26.534Z,62776.53
2019-02-25T16:00:52.772Z,62778.37
2019-02-25T16:06:28.774Z,62757.39
2019-02-25T16:08:56.411Z,62751.34
2019-02-25T16:11:25.608Z,62748.01
2019-02-25T16:13:53.247Z,62751.69
2019-02-25T16:16:20.062Z,62743.80
2019-02-25T16:21:48.051Z,62744.56
2019-02-25T16:24:16.367Z,62729.37
2019-02-25T16:26:42.799Z,62730.96
2019-02-25T16:29:11.659Z,62729.87
2019-02-25T16:31:38.710Z,62727.15
2019-02-25T16:34:04.936Z,62724.42
2019-02-25T16:36:32.838Z,62721.16
2019-02-25T16:39:00.425Z,62711.57
2019-02-25T16:41:31.759Z,62709.80
2019-02-25T16:43:57.329Z,62713.27
2019-02-25T16:46:24.041Z,62711.64
2019-02-25T16:48:52.953Z,62713.01
2019-02-25T16:51:20.051Z,62698.43
2019-02-25T16:53:49.814Z,62707.56
2019-02-25T16:56:14.439Z,62691.04
2019-02-25T16:58:40.699Z,62692.86
2019-02-25T17:01:08.041Z,62688.10
2019-02-25T17:03:37.008Z,62698.87
2019-02-25T17:06:05.055Z,62698.87
2019-02-25T17:08:32.400Z,62693.96
2019-02-25T17:11:00.013Z,62680.16
2019-02-25T17:13:29.308Z,62677.64
2019-02-25T17:15:55.815Z,62684.18
2019-02-25T17:18:22.069Z,62671.65
2019-02-25T17:20:50.365Z,62669.28
2019-02-25T17:23:16.459Z,62682.54
2019-02-25T17:25:43.542Z,62681.45
2019-02-25T17:28:14.675Z,62674.38
2019-02-25T17:30:41.178Z,62683.09
2019-02-25T17:35:43.524Z,62665.93
2019-02-25T17:38:09.977Z,62672.20
2019-02-25T17:40:36.187Z,62679.83
2019-02-25T17:43:02.431Z,62672.07
2019-02-25T17:48:42.722Z,62666.09
2019-02-25T17:51:08.947Z,62662.21
2019-02-25T17:53:35.185Z,62667.39
2019-02-25T17:56:01.421Z,62662.00
2019-02-25T17:58:27.655Z,62674.93
2019-02-25T18:00:55.916Z,62661.12
2019-02-25T18:03:22.559Z,62669.75
2019-02-25T18:05:50.263Z,62674.37
2019-02-25T18:08:16.499Z,62669.90
2019-02-25T18:10:43.682Z,62676.57
2019-02-25T18:13:11.041Z,62663.09
2019-02-25T18:15:39.137Z,62684.18
2019-02-25T18:18:07.362Z,62666.15
2019-02-25T18:20:33.540Z,62672.74
2019-02-25T18:23:01.671Z,62670.23
2019-02-25T18:25:27.920Z,62673.36
2019-02-25T18:27:54.259Z,62678.19
2019-02-25T18:31:02.502Z,62663.63
2019-02-25T18:33:30.145Z,62661.79
2019-02-25T18:36:00.170Z,62671.72
2019-02-25T18:41:02.426Z,62677.37
2019-02-25T18:43:30.363Z,62672.32
2019-02-25T18:45:58.433Z,62678.79
2019-02-25T18:48:27.344Z,62667.44
2019-02-25T18:51:35.909Z,62669.90
2019-02-25T18:57:16.493Z,62657.66
2019-02-25T18:59:42.956Z,62671.12
2019-02-25T19:02:10.180Z,62661.54
2019-02-25T19:04:39.044Z,62657.86
2019-02-25T19:07:05.847Z,62659.55
2019-02-25T19:09:34.840Z,62655.89
2019-02-25T19:12:01.817Z,62654.60
2019-02-25T19:14:28.777Z,62665.69
2019-02-25T19:19:51.627Z,62653.25
2019-02-25T19:24:52.945Z,62646.51
2019-02-25T19:27:19.189Z,62639.17
2019-02-25T19:29:47.660Z,62652.10
2019-02-25T19:32:14.836Z,62651.55
2019-02-25T19:34:41.735Z,62652.10
2019-02-25T19:37:09.666Z,62637.54
2019-02-25T19:39:39.098Z,62647.75
2019-02-25T19:42:04.284Z,62640.54
2019-02-25T19:44:32.111Z,62646.65
2019-02-25T19:49:52.425Z,62633.95
2019-02-25T19:52:18.763Z,62633.05
2019-02-25T19:54:45.824Z,62637.68
2019-02-25T19:57:14.081Z,62633.67
2019-02-25T20:02:16.162Z,62629.59
2019-02-25T20:04:43.041Z,62640.13
2019-02-25T20:07:10.553Z,62628.30
2019-02-25T20:12:16.269Z,62627.21
2019-02-25T20:14:42.650Z,62597.86
2019-02-25T20:17:09.021Z,62636.32
2019-02-25T20:19:35.297Z,62626.61
2019-02-25T20:22:01.524Z,62626.95
2019-02-25T20:24:27.771Z,62614.17
2019-02-25T20:26:57.853Z,62620.14
2019-02-25T20:29:22.192Z,62621.64
2019-02-25T20:31:50.170Z,62633.07
2019-02-25T20:34:18.854Z,62621.11
2019-02-25T20:36:47.968Z,62630.36
2019-02-25T20:39:12.928Z,62616.69
2019-02-25T20:41:39.171Z,62630.36
2019-02-25T20:44:05.413Z,62616.41
2019-02-25T20:46:32.740Z,62615.73
2019-02-25T20:49:00.047Z,62614.12
2019-02-25T20:51:29.837Z,62602.48
2019-02-25T20:53:57.188Z,62604.05
2019-02-25T20:56:26.135Z,62603.18
2019-02-25T20:58:52.443Z,62609.71
2019-02-25T21:01:20.853Z,62601.06
2019-02-25T21:03:48.580Z,62598.90
2019-02-25T21:06:16.743Z,62604.81
2019-02-25T21:08:44.593Z,62591.09
2019-02-25T21:11:13.512Z,62588.90
2019-02-25T21:13:40.265Z,62591.77
2019-02-25T21:16:10.393Z,62581.84
2019-02-25T21:18:35.705Z,62586.33
2019-02-25T21:21:02.055Z,62584.77
2019-02-25T21:23:28.290Z,62583.48
2019-02-25T21:25:57.482Z,62577.57
2019-02-25T21:28:25.118Z,62603.17
2019-02-25T21:30:52.764Z,62591.76
2019-02-25T21:33:19.888Z,62592.16
2019-02-25T21:35:47.107Z,62596.11
2019-02-25T21:38:13.360Z,62595.58
2019-02-25T21:40:39.595Z,62577.42
2019-02-25T21:43:05.836Z,62573.62
2019-02-25T21:45:32.497Z,62582.53
2019-02-25T21:48:02.071Z,62569.68
2019-02-25T21:50:30.788Z,62574.37
2019-02-25T21:52:56.492Z,62558.42
2019-02-25T21:55:23.770Z,62561.40
2019-02-25T21:57:52.534Z,62564.60
2019-02-25T22:00:40.883Z,62560.80
2019-02-25T22:03:10.272Z,62549.79
2019-02-25T22:05:35.244Z,62554.28
2019-02-25T22:08:02.316Z,62537.03
2019-02-25T22:10:29.712Z,62540.02
2019-02-25T22:12:56.008Z,62549.93
2019-02-25T22:15:22.643Z,62541.79
2019-02-25T22:17:53.007Z,62542.67
2019-02-25T22:20:21.347Z,62556.47
2019-02-25T22:28:15.973Z,62567.31
2019-02-25T22:30:42.917Z,62562.84
2019-02-25T22:33:25.111Z,62575.52
2019-02-25T22:35:40.560Z,62577.22
2019-02-25T22:38:06.839Z,62584.83
2019-02-25T22:40:34.942Z,62603.71
2019-02-25T22:43:01.331Z,62612.42
2019-02-25T22:45:27.619Z,62610.91
2019-02-25T22:48:00.580Z,62607.66
2019-02-25T22:50:28.759Z,62621.71
2019-02-25T22:52:58.153Z,62621.44
2019-02-25T22:55:23.252Z,62632.19
2019-02-25T22:57:53.457Z,62617.70
2019-02-25T23:00:58.938Z,62612.54
2019-02-25T23:03:27.500Z,62619.74
2019-02-25T23:05:55.168Z,62627.63
2019-02-25T23:08:23.442Z,62625.44
2019-02-25T23:10:51.521Z,62623.08
2019-02-25T23:13:20.061Z,62615.25
2019-02-25T23:15:47.341Z,62631.45
2019-02-25T23:18:16.599Z,62618.52
2019-02-25T23:20:42.645Z,62630.90
2019-02-25T23:23:08.925Z,62634.71
2019-02-25T23:25:35.207Z,62640.68
2019-02-25T23:28:02.269Z,62642.85
2019-02-25T23:30:29.696Z,62637.95
2019-02-25T23:32:55.988Z,62660.79
2019-02-25T23:35:23.012Z,62665.69
2019-02-25T23:37:51.416Z,62659.71
2019-02-25T23:40:18.661Z,62653.85
2019-02-25T23:42:46.667Z,62656.51
2019-02-25T23:47:41.201Z,62646.44
2019-02-25T23:53:21.600Z,62646.65
2019-02-25T23:55:50.058Z,62641.34
2019-02-25T23:58:17.204Z,62663.03
